createdAt,value
2023-01-09T05:30:24.461Z,31.30
2023-01-09T05:35:26.202Z,33.37
2023-01-09T05:40:32.315Z,32.07
2023-01-09T05:45:40.272Z,32.93
2023-01-09T05:50:41.975Z,31.20
2023-01-09T05:55:44.025Z,32.47
2023-01-09T06:00:45.961Z,31.43
2023-01-09T06:05:47.912Z,32.07
2023-01-09T06:10:49.568Z,31.17
2023-01-09T06:15:51.312Z,31.77
2023-01-09T06:20:53.014Z,32.80
2023-01-09T06:25:54.655Z,33.07
2023-01-09T06:30:56.277Z,32.37
2023-01-09T06:35:58.423Z,32.50
2023-01-09T06:41:00.142Z,33.63
2023-01-09T06:46:01.863Z,35.77
2023-01-09T06:51:03.723Z,33.33
2023-01-09T06:56:05.707Z,36.27
2023-01-09T07:01:07.423Z,36.10
2023-01-09T07:06:09.461Z,35.27
2023-01-09T07:11:11.085Z,34.30
2023-01-09T07:16:12.831Z,33.70
2023-01-09T07:21:14.537Z,33.87
2023-01-09T07:26:16.168Z,33.60
2023-01-09T07:31:17.784Z,33.57
2023-01-09T07:36:19.683Z,32.93
2023-01-09T07:41:21.336Z,31.93
2023-01-09T07:46:23.255Z,32.47
2023-01-09T07:51:25.155Z,34.13
2023-01-09T07:56:26.869Z,32.93
2023-01-09T08:01:28.685Z,32.30
2023-01-09T08:06:31.589Z,33.10
2023-01-09T08:11:33.200Z,32.20
2023-01-09T08:16:34.932Z,31.03
2023-01-09T08:21:36.528Z,31.60
2023-01-09T08:26:38.109Z,34.17
2023-01-09T08:31:40.210Z,32.37
2023-01-09T08:36:42.033Z,34.13
2023-01-09T08:42:02.543Z,31.97
2023-01-09T08:47:07.380Z,25.37
2023-01-09T08:52:09.883Z,15.77
2023-01-09T08:57:11.546Z,15.17
2023-01-09T09:02:13.209Z,14.83
2023-01-09T09:07:14.831Z,16.30
2023-01-09T09:12:16.495Z,15.30
2023-01-09T09:17:18.449Z,15.27
2023-01-09T09:22:20.151Z,15.43
2023-01-09T09:27:21.892Z,16.40
2023-01-09T09:32:23.705Z,16.23
2023-01-09T09:37:25.448Z,16.33
2023-01-09T09:42:54.264Z,16.93
2023-01-09T09:48:01.536Z,17.20
2023-01-09T09:53:29.637Z,17.30
2023-01-09T09:58:51.477Z,17.13
2023-01-09T10:04:00.768Z,18.07
2023-01-09T10:09:06.422Z,17.10
2023-01-09T10:14:23.193Z,14.90
2023-01-09T10:20:04.420Z,14.90
2023-01-09T10:25:11.802Z,14.43
2023-01-09T10:30:44.600Z,13.53
2023-01-09T10:36:04.989Z,14.30
2023-01-09T10:41:14.243Z,13.90
2023-01-09T10:46:25.890Z,14.50
2023-01-09T10:51:40.891Z,14.47
2023-01-09T10:56:48.470Z,13.40
2023-01-09T11:01:50.302Z,13.50
2023-01-09T11:06:58.700Z,13.23
2023-01-09T11:12:00.347Z,13.80
2023-01-09T11:17:03.970Z,13.97
2023-01-09T11:22:17.414Z,13.53
2023-01-09T11:27:24.437Z,14.30
2023-01-09T11:32:26.189Z,14.33
2023-01-09T11:37:30.463Z,13.87
2023-01-09T11:42:50.954Z,14.43
2023-01-09T11:47:52.698Z,14.70
2023-01-09T11:53:17.438Z,14.63
2023-01-09T11:58:21.917Z,14.83
2023-01-09T12:03:26.664Z,14.80
2023-01-09T12:08:50.221Z,15.10
2023-01-09T12:14:02.400Z,15.23
2023-01-09T12:19:34.467Z,14.50
2023-01-09T12:24:44.171Z,14.33
2023-01-09T12:30:07.881Z,14.30
2023-01-09T12:35:39.553Z,14.63
2023-01-09T12:41:07.058Z,14.93
2023-01-09T12:46:34.118Z,14.97
2023-01-09T12:51:44.104Z,15.00
2023-01-09T12:57:01.426Z,15.53
2023-01-09T13:02:09.300Z,15.20
2023-01-09T13:07:52.612Z,15.47
2023-01-09T13:12:56.123Z,15.30
2023-01-09T13:18:34.007Z,15.23
2023-01-09T13:24:02.609Z,16.10
2023-01-09T13:29:21.809Z,15.70
2023-01-09T13:34:27.388Z,15.33
2023-01-09T13:39:35.459Z,15.60
2023-01-09T13:44:37.551Z,17.97
2023-01-09T13:49:42.614Z,16.20
2023-01-09T13:54:47.409Z,17.53
2023-01-09T13:59:50.106Z,16.03
2023-01-09T14:04:51.809Z,16.27
2023-01-09T14:10:05.365Z,15.97
2023-01-09T14:15:23.493Z,16.90
2023-01-09T14:20:33.766Z,17.00
2023-01-09T14:25:39.092Z,18.93
2023-01-09T14:30:52.810Z,19.33
2023-01-09T14:36:11.865Z,24.57
2023-01-09T14:41:48.052Z,23.70
2023-01-09T14:46:52.010Z,21.93
2023-01-09T14:51:55.479Z,22.53
2023-01-09T14:56:57.125Z,23.10
2023-01-09T15:02:02.386Z,33.87
2023-01-09T15:07:06.065Z,23.40
2023-01-09T15:12:13.331Z,20.83
2023-01-09T15:17:35.008Z,20.27
2023-01-09T15:22:38.264Z,18.63
2023-01-09T15:27:58.126Z,18.50
2023-01-09T15:33:05.532Z,18.13
2023-01-09T15:38:11.916Z,17.27
2023-01-09T15:43:14.722Z,17.47
2023-01-09T15:48:22.243Z,17.70
2023-01-09T15:53:26.907Z,17.90
2023-01-09T15:58:33.238Z,19.60
2023-01-09T16:03:38.898Z,19.70
2023-01-09T16:08:47.600Z,16.80
2023-01-09T16:13:50.069Z,16.53
2023-01-09T16:18:54.387Z,15.70
2023-01-09T16:24:20.230Z,16.20
2023-01-09T16:29:35.591Z,15.90
2023-01-09T16:34:42.481Z,16.60
2023-01-09T16:40:22.146Z,17.53
2023-01-09T16:45:26.428Z,17.33
2023-01-09T16:50:28.497Z,17.57
2023-01-09T16:55:30.263Z,17.23
2023-01-09T17:00:32.144Z,17.80
2023-01-09T17:05:33.846Z,18.30
2023-01-09T17:10:35.509Z,19.10
2023-01-09T17:15:37.200Z,20.43
2023-01-09T17:20:40.988Z,20.63
2023-01-09T17:26:01.940Z,18.33
2023-01-09T17:31:06.563Z,20.10
2023-01-09T17:36:34.583Z,26.30
2023-01-09T17:41:36.311Z,25.10
2023-01-09T17:46:40.935Z,23.83
2023-01-09T17:51:43.064Z,18.70
2023-01-09T17:56:52.119Z,19.70
2023-01-09T18:01:54.278Z,19.03
2023-01-09T18:06:58.242Z,20.10
2023-01-09T18:12:07.622Z,19.73
2023-01-09T18:17:12.346Z,17.70
2023-01-09T18:22:14.245Z,18.53
2023-01-09T18:27:17.296Z,18.07
2023-01-09T18:32:19.114Z,19.17
2023-01-09T18:37:20.959Z,21.77
2023-01-09T18:42:25.839Z,23.53
2023-01-09T18:47:27.614Z,18.30
2023-01-09T18:52:30.797Z,18.60
2023-01-09T18:57:32.820Z,20.20
2023-01-09T19:02:36.949Z,18.00
2023-01-09T19:07:43.743Z,18.93
2023-01-09T19:12:45.347Z,26.57
2023-01-09T19:17:50.033Z,22.03
2023-01-09T19:22:51.853Z,20.63
2023-01-09T19:27:55.748Z,21.03
2023-01-09T19:32:57.424Z,20.90
2023-01-09T19:37:59.058Z,20.33
2023-01-09T19:43:00.770Z,17.50
2023-01-09T19:48:02.353Z,16.97
2023-01-09T19:53:04.038Z,16.73
2023-01-09T19:58:05.740Z,17.17
2023-01-09T20:03:07.389Z,17.03
2023-01-09T20:08:09.364Z,17.83
2023-01-09T20:13:11.078Z,17.50
2023-01-09T20:18:12.722Z,16.97
2023-01-09T20:23:16.908Z,17.77
2023-01-09T20:28:18.567Z,17.83
